sensor_id;sensor_type;location;lat;lon;timestamp;temperature;humidity
14182;DHT22;7171;50.936;6.764;2023-03-23T00:00:48;14.40;99.90
14182;DHT22;7171;50.936;6.764;2023-03-23T00:03:16;14.40;99.90
14182;DHT22;7171;50.936;6.764;2023-03-23T00:05:44;14.30;99.90
14182;DHT22;7171;50.936;6.764;2023-03-23T00:08:15;14.30;99.90
14182;DHT22;7171;50.936;6.764;2023-03-23T00:10:42;14.40;99.90
14182;DHT22;7171;50.936;6.764;2023-03-23T00:13:09;14.30;99.90
14182;DHT22;7171;50.936;6.764;2023-03-23T00:15:36;14.40;99.90
14182;DHT22;7171;50.936;6.764;2023-03-23T00:18:07;14.40;99.90
14182;DHT22;7171;50.936;6.764;2023-03-23T00:20:35;14.40;99.90
14182;DHT22;7171;50.936;6.764;2023-03-23T00:23:07;14.40;99.90
14182;DHT22;7171;50.936;6.764;2023-03-23T00:25:33;14.40;99.90
14182;DHT22;7171;50.936;6.764;2023-03-23T00:28:00;14.40;99.90
14182;DHT22;7171;50.936;6.764;2023-03-23T00:30:28;14.40;99.90
14182;DHT22;7171;50.936;6.764;2023-03-23T00:32:55;14.40;99.90
14182;DHT22;7171;50.936;6.764;2023-03-23T00:35:23;14.40;99.90
14182;DHT22;7171;50.936;6.764;2023-03-23T00:37:51;14.40;99.90
14182;DHT22;7171;50.936;6.764;2023-03-23T00:40:18;14.40;99.90
14182;DHT22;7171;50.936;6.764;2023-03-23T00:42:45;14.40;99.90
14182;DHT22;7171;50.936;6.764;2023-03-23T00:45:14;14.40;99.90
14182;DHT22;7171;50.936;6.764;2023-03-23T00:47:40;14.40;99.90
14182;DHT22;7171;50.936;6.764;2023-03-23T00:50:12;14.40;99.90
14182;DHT22;7171;50.936;6.764;2023-03-23T00:52:39;14.40;99.90
14182;DHT22;7171;50.936;6.764;2023-03-23T00:55:08;14.40;99.90
14182;DHT22;7171;50.936;6.764;2023-03-23T00:57:35;14.50;99.90
14182;DHT22;7171;50.936;6.764;2023-03-23T01:00:02;14.50;99.90
14182;DHT22;7171;50.936;6.764;2023-03-23T01:02:34;14.40;99.90
14182;DHT22;7171;50.936;6.764;2023-03-23T01:05:01;14.40;99.90
14182;DHT22;7171;50.936;6.764;2023-03-23T01:07:29;14.40;99.90
14182;DHT22;7171;50.936;6.764;2023-03-23T01:09:56;14.50;99.90
14182;DHT22;7171;50.936;6.764;2023-03-23T01:12:27;14.50;99.90
14182;DHT22;7171;50.936;6.764;2023-03-23T01:14:54;14.50;99.90
14182;DHT22;7171;50.936;6.764;2023-03-23T01:17:20;14.50;99.90
14182;DHT22;7171;50.936;6.764;2023-03-23T01:19:47;14.50;99.90
14182;DHT22;7171;50.936;6.764;2023-03-23T01:22:14;14.40;99.90
14182;DHT22;7171;50.936;6.764;2023-03-23T01:24:41;14.50;99.90
14182;DHT22;7171;50.936;6.764;2023-03-23T01:27:08;14.40;99.90
14182;DHT22;7171;50.936;6.764;2023-03-23T01:29:36;14.50;99.90
14182;DHT22;7171;50.936;6.764;2023-03-23T01:32:03;14.50;99.90
14182;DHT22;7171;50.936;6.764;2023-03-23T01:34:30;14.50;99.90
14182;DHT22;7171;50.936;6.764;2023-03-23T01:36:57;14.50;99.90
14182;DHT22;7171;50.936;6.764;2023-03-23T01:39:23;14.50;99.90
14182;DHT22;7171;50.936;6.764;2023-03-23T01:41:50;14.50;99.90
14182;DHT22;7171;50.936;6.764;2023-03-23T01:47:25;14.40;99.90
14182;DHT22;7171;50.936;6.764;2023-03-23T01:49:52;14.40;99.90
14182;DHT22;7171;50.936;6.764;2023-03-23T01:52:23;14.30;99.90
14182;DHT22;7171;50.936;6.764;2023-03-23T01:54:53;14.30;99.90
14182;DHT22;7171;50.936;6.764;2023-03-23T01:57:23;14.20;99.90
14182;DHT22;7171;50.936;6.764;2023-03-23T01:59:53;14.10;99.90
14182;DHT22;7171;50.936;6.764;2023-03-23T02:02:25;14.10;99.90
14182;DHT22;7171;50.936;6.764;2023-03-23T02:04:57;14.00;99.90
14182;DHT22;7171;50.936;6.764;2023-03-23T02:07:26;14.00;99.90
14182;DHT22;7171;50.936;6.764;2023-03-23T02:09:53;13.90;99.90
14182;DHT22;7171;50.936;6.764;2023-03-23T02:12:19;13.80;99.90
14182;DHT22;7171;50.936;6.764;2023-03-23T02:14:46;13.80;99.90
14182;DHT22;7171;50.936;6.764;2023-03-23T02:17:20;13.80;99.90
14182;DHT22;7171;50.936;6.764;2023-03-23T02:20:06;13.70;99.90
14182;DHT22;7171;50.936;6.764;2023-03-23T02:22:59;13.70;99.90
14182;DHT22;7171;50.936;6.764;2023-03-23T02:25:42;13.70;99.90
14182;DHT22;7171;50.936;6.764;2023-03-23T02:28:26;13.70;99.90
14182;DHT22;7171;50.936;6.764;2023-03-23T02:31:12;13.70;99.90
14182;DHT22;7171;50.936;6.764;2023-03-23T02:33:48;13.70;99.90
14182;DHT22;7171;50.936;6.764;2023-03-23T02:36:22;13.60;99.90
14182;DHT22;7171;50.936;6.764;2023-03-23T02:38:55;13.60;99.90
14182;DHT22;7171;50.936;6.764;2023-03-23T02:41:28;13.60;99.90
14182;DHT22;7171;50.936;6.764;2023-03-23T02:43:57;13.60;99.90
14182;DHT22;7171;50.936;6.764;2023-03-23T02:46:25;13.60;99.90
14182;DHT22;7171;50.936;6.764;2023-03-23T02:48:55;13.60;99.90
14182;DHT22;7171;50.936;6.764;2023-03-23T02:51:24;13.60;99.90
14182;DHT22;7171;50.936;6.764;2023-03-23T02:53:53;13.60;99.90
14182;DHT22;7171;50.936;6.764;2023-03-23T02:56:23;13.60;99.90
14182;DHT22;7171;50.936;6.764;2023-03-23T02:58:51;13.60;99.90
14182;DHT22;7171;50.936;6.764;2023-03-23T03:01:50;13.60;99.90
14182;DHT22;7171;50.936;6.764;2023-03-23T03:04:21;13.60;99.90
14182;DHT22;7171;50.936;6.764;2023-03-23T03:07:03;13.60;99.90
14182;DHT22;7171;50.936;6.764;2023-03-23T03:09:40;13.60;99.90
14182;DHT22;7171;50.936;6.764;2023-03-23T03:12:12;13.60;99.90
14182;DHT22;7171;50.936;6.764;2023-03-23T03:14:42;13.60;99.90
14182;DHT22;7171;50.936;6.764;2023-03-23T03:17:16;13.60;99.90
14182;DHT22;7171;50.936;6.764;2023-03-23T03:19:50;13.60;99.90
14182;DHT22;7171;50.936;6.764;2023-03-23T03:22:19;13.60;99.90
14182;DHT22;7171;50.936;6.764;2023-03-23T03:24:48;13.60;99.90
14182;DHT22;7171;50.936;6.764;2023-03-23T03:27:18;13.60;99.90
14182;DHT22;7171;50.936;6.764;2023-03-23T03:29:53;13.60;99.90
14182;DHT22;7171;50.936;6.764;2023-03-23T03:32:24;13.70;99.90
14182;DHT22;7171;50.936;6.764;2023-03-23T03:34:54;13.70;99.90
14182;DHT22;7171;50.936;6.764;2023-03-23T03:37:21;13.70;99.90
14182;DHT22;7171;50.936;6.764;2023-03-23T03:39:48;13.70;99.90
14182;DHT22;7171;50.936;6.764;2023-03-23T03:42:16;13.70;99.90
14182;DHT22;7171;50.936;6.764;2023-03-23T03:44:43;13.70;99.90
14182;DHT22;7171;50.936;6.764;2023-03-23T03:47:10;13.70;99.90
14182;DHT22;7171;50.936;6.764;2023-03-23T03:49:36;13.70;99.90
14182;DHT22;7171;50.936;6.764;2023-03-23T03:52:04;13.70;99.90
14182;DHT22;7171;50.936;6.764;2023-03-23T03:54:31;13.80;99.90
14182;DHT22;7171;50.936;6.764;2023-03-23T03:56:58;13.60;99.90
14182;DHT22;7171;50.936;6.764;2023-03-23T03:59:25;13.80;99.90
14182;DHT22;7171;50.936;6.764;2023-03-23T04:01:52;13.80;99.90
14182;DHT22;7171;50.936;6.764;2023-03-23T04:04:20;13.80;99.90
14182;DHT22;7171;50.936;6.764;2023-03-23T04:06:49;13.80;99.90
14182;DHT22;7171;50.936;6.764;2023-03-23T04:09:17;13.80;99.90
14182;DHT22;7171;50.936;6.764;2023-03-23T04:11:44;13.80;99.90
14182;DHT22;7171;50.936;6.764;2023-03-23T04:14:11;13.80;99.90
14182;DHT22;7171;50.936;6.764;2023-03-23T04:16:38;13.80;99.90
14182;DHT22;7171;50.936;6.764;2023-03-23T04:19:06;13.80;99.90
14182;DHT22;7171;50.936;6.764;2023-03-23T04:21:32;13.80;99.90
14182;DHT22;7171;50.936;6.764;2023-03-23T04:24:00;13.80;99.90
14182;DHT22;7171;50.936;6.764;2023-03-23T04:26:29;13.80;99.90
14182;DHT22;7171;50.936;6.764;2023-03-23T04:28:56;13.80;99.90
14182;DHT22;7171;50.936;6.764;2023-03-23T04:31:24;13.80;99.90
14182;DHT22;7171;50.936;6.764;2023-03-23T04:33:51;13.90;99.90
14182;DHT22;7171;50.936;6.764;2023-03-23T04:36:19;13.90;99.90
14182;DHT22;7171;50.936;6.764;2023-03-23T04:38:48;13.90;99.90
14182;DHT22;7171;50.936;6.764;2023-03-23T04:41:15;13.90;99.90
14182;DHT22;7171;50.936;6.764;2023-03-23T04:43:43;13.90;99.90
14182;DHT22;7171;50.936;6.764;2023-03-23T04:46:10;13.90;99.90
14182;DHT22;7171;50.936;6.764;2023-03-23T04:48:37;13.90;99.90
14182;DHT22;7171;50.936;6.764;2023-03-23T04:51:05;13.90;99.90
14182;DHT22;7171;50.936;6.764;2023-03-23T04:53:32;13.90;99.90
14182;DHT22;7171;50.936;6.764;2023-03-23T04:55:59;13.90;99.90
14182;DHT22;7171;50.936;6.764;2023-03-23T04:58:27;13.90;99.90
14182;DHT22;7171;50.936;6.764;2023-03-23T05:00:56;13.90;99.90
14182;DHT22;7171;50.936;6.764;2023-03-23T05:03:23;13.90;99.90
14182;DHT22;7171;50.936;6.764;2023-03-23T05:05:50;13.90;99.90
14182;DHT22;7171;50.936;6.764;2023-03-23T05:08:18;13.90;99.90
14182;DHT22;7171;50.936;6.764;2023-03-23T05:10:50;13.90;99.90
14182;DHT22;7171;50.936;6.764;2023-03-23T05:13:18;13.90;99.90
14182;DHT22;7171;50.936;6.764;2023-03-23T05:15:45;13.90;99.90
14182;DHT22;7171;50.936;6.764;2023-03-23T05:18:14;13.90;99.90
14182;DHT22;7171;50.936;6.764;2023-03-23T05:20:41;13.90;99.90
14182;DHT22;7171;50.936;6.764;2023-03-23T05:23:08;13.90;99.90
14182;DHT22;7171;50.936;6.764;2023-03-23T05:25:35;14.00;99.90
14182;DHT22;7171;50.936;6.764;2023-03-23T05:28:05;14.20;99.90
14182;DHT22;7171;50.936;6.764;2023-03-23T05:30:33;14.30;99.90
14182;DHT22;7171;50.936;6.764;2023-03-23T05:33:00;14.40;99.90
14182;DHT22;7171;50.936;6.764;2023-03-23T05:35:29;14.40;99.90
14182;DHT22;7171;50.936;6.764;2023-03-23T05:37:55;14.50;99.90
14182;DHT22;7171;50.936;6.764;2023-03-23T05:40:25;14.60;99.90
14182;DHT22;7171;50.936;6.764;2023-03-23T05:42:53;14.60;99.90
14182;DHT22;7171;50.936;6.764;2023-03-23T05:45:21;14.70;99.90
14182;DHT22;7171;50.936;6.764;2023-03-23T05:47:48;14.70;99.90
14182;DHT22;7171;50.936;6.764;2023-03-23T05:50:15;14.70;99.90
14182;DHT22;7171;50.936;6.764;2023-03-23T05:52:44;14.70;99.90
14182;DHT22;7171;50.936;6.764;2023-03-23T05:55:11;14.70;99.90
14182;DHT22;7171;50.936;6.764;2023-03-23T05:57:39;14.80;99.90
14182;DHT22;7171;50.936;6.764;2023-03-23T06:00:06;14.80;99.90
14182;DHT22;7171;50.936;6.764;2023-03-23T06:02:44;14.80;99.90
14182;DHT22;7171;50.936;6.764;2023-03-23T06:05:11;14.80;99.90
14182;DHT22;7171;50.936;6.764;2023-03-23T06:07:39;14.80;99.90
14182;DHT22;7171;50.936;6.764;2023-03-23T06:10:09;14.80;99.90
14182;DHT22;7171;50.936;6.764;2023-03-23T06:12:36;14.80;99.90
14182;DHT22;7171;50.936;6.764;2023-03-23T06:15:03;14.80;99.90
14182;DHT22;7171;50.936;6.764;2023-03-23T06:17:32;14.80;99.90
14182;DHT22;7171;50.936;6.764;2023-03-23T06:19:59;14.70;99.90
14182;DHT22;7171;50.936;6.764;2023-03-23T06:22:26;14.80;99.90
14182;DHT22;7171;50.936;6.764;2023-03-23T06:24:53;14.80;99.90
14182;DHT22;7171;50.936;6.764;2023-03-23T06:27:23;14.80;99.90
14182;DHT22;7171;50.936;6.764;2023-03-23T06:29:50;14.80;99.90
14182;DHT22;7171;50.936;6.764;2023-03-23T06:32:17;14.80;99.90
14182;DHT22;7171;50.936;6.764;2023-03-23T06:34:44;14.80;99.90
14182;DHT22;7171;50.936;6.764;2023-03-23T06:37:13;14.80;99.90
14182;DHT22;7171;50.936;6.764;2023-03-23T06:39:41;14.80;99.90
14182;DHT22;7171;50.936;6.764;2023-03-23T06:42:09;14.80;99.90
14182;DHT22;7171;50.936;6.764;2023-03-23T06:44:39;14.80;99.90
14182;DHT22;7171;50.936;6.764;2023-03-23T06:47:05;14.80;99.90
14182;DHT22;7171;50.936;6.764;2023-03-23T06:49:33;14.40;99.90
14182;DHT22;7171;50.936;6.764;2023-03-23T06:52:00;14.90;99.90
14182;DHT22;7171;50.936;6.764;2023-03-23T06:54:28;14.90;99.90
14182;DHT22;7171;50.936;6.764;2023-03-23T06:56:55;15.00;99.90
14182;DHT22;7171;50.936;6.764;2023-03-23T06:59:22;15.00;99.90
14182;DHT22;7171;50.936;6.764;2023-03-23T07:01:50;15.00;99.90
14182;DHT22;7171;50.936;6.764;2023-03-23T07:04:17;15.00;99.90
14182;DHT22;7171;50.936;6.764;2023-03-23T07:06:44;15.00;99.90
14182;DHT22;7171;50.936;6.764;2023-03-23T07:09:11;15.10;99.90
14182;DHT22;7171;50.936;6.764;2023-03-23T07:11:38;15.00;99.90
14182;DHT22;7171;50.936;6.764;2023-03-23T07:14:04;15.00;99.90
14182;DHT22;7171;50.936;6.764;2023-03-23T07:16:32;15.10;99.90
14182;DHT22;7171;50.936;6.764;2023-03-23T07:19:00;15.10;99.90
14182;DHT22;7171;50.936;6.764;2023-03-23T07:21:27;15.10;99.90
14182;DHT22;7171;50.936;6.764;2023-03-23T07:23:54;15.10;99.90
14182;DHT22;7171;50.936;6.764;2023-03-23T07:26:20;15.10;99.90
14182;DHT22;7171;50.936;6.764;2023-03-23T07:28:48;15.10;99.90
14182;DHT22;7171;50.936;6.764;2023-03-23T07:31:15;15.20;99.90
14182;DHT22;7171;50.936;6.764;2023-03-23T07:33:42;15.20;99.90
14182;DHT22;7171;50.936;6.764;2023-03-23T07:36:11;15.30;99.90
14182;DHT22;7171;50.936;6.764;2023-03-23T07:38:38;15.20;99.90
14182;DHT22;7171;50.936;6.764;2023-03-23T07:41:05;15.30;99.90
14182;DHT22;7171;50.936;6.764;2023-03-23T07:43:32;15.30;99.90
14182;DHT22;7171;50.936;6.764;2023-03-23T07:45:59;15.30;99.90
14182;DHT22;7171;50.936;6.764;2023-03-23T07:48:26;15.30;99.90
14182;DHT22;7171;50.936;6.764;2023-03-23T07:53:22;15.40;99.90
14182;DHT22;7171;50.936;6.764;2023-03-23T07:55:49;15.40;99.90
14182;DHT22;7171;50.936;6.764;2023-03-23T07:58:16;15.40;99.90
14182;DHT22;7171;50.936;6.764;2023-03-23T08:00:45;15.40;99.90
14182;DHT22;7171;50.936;6.764;2023-03-23T08:03:14;15.40;99.90
14182;DHT22;7171;50.936;6.764;2023-03-23T08:05:41;15.40;99.90
14182;DHT22;7171;50.936;6.764;2023-03-23T08:08:09;15.40;99.90
14182;DHT22;7171;50.936;6.764;2023-03-23T08:10:37;15.50;99.90
14182;DHT22;7171;50.936;6.764;2023-03-23T08:13:04;15.50;99.90
14182;DHT22;7171;50.936;6.764;2023-03-23T08:15:32;15.50;99.90
14182;DHT22;7171;50.936;6.764;2023-03-23T08:20:27;16.20;99.90
14182;DHT22;7171;50.936;6.764;2023-03-23T08:22:56;16.20;99.90
14182;DHT22;7171;50.936;6.764;2023-03-23T08:25:24;16.10;99.90
14182;DHT22;7171;50.936;6.764;2023-03-23T08:27:53;16.00;99.90
14182;DHT22;7171;50.936;6.764;2023-03-23T08:30:21;16.00;99.90
14182;DHT22;7171;50.936;6.764;2023-03-23T08:32:49;15.90;99.90
14182;DHT22;7171;50.936;6.764;2023-03-23T08:35:16;15.80;99.90
14182;DHT22;7171;50.936;6.764;2023-03-23T08:37:44;15.80;99.90
14182;DHT22;7171;50.936;6.764;2023-03-23T08:40:14;15.80;99.90
14182;DHT22;7171;50.936;6.764;2023-03-23T08:42:45;15.70;99.90
14182;DHT22;7171;50.936;6.764;2023-03-23T08:45:16;15.70;99.90
14182;DHT22;7171;50.936;6.764;2023-03-23T08:47:43;15.70;99.90
14182;DHT22;7171;50.936;6.764;2023-03-23T08:50:13;15.80;99.90
14182;DHT22;7171;50.936;6.764;2023-03-23T08:52:41;15.80;99.90
14182;DHT22;7171;50.936;6.764;2023-03-23T08:55:09;15.70;99.90
14182;DHT22;7171;50.936;6.764;2023-03-23T08:57:36;15.70;99.90
14182;DHT22;7171;50.936;6.764;2023-03-23T09:00:04;15.70;99.90
14182;DHT22;7171;50.936;6.764;2023-03-23T09:02:42;15.70;99.90
14182;DHT22;7171;50.936;6.764;2023-03-23T09:05:10;15.70;99.90
14182;DHT22;7171;50.936;6.764;2023-03-23T09:07:38;15.70;99.90
14182;DHT22;7171;50.936;6.764;2023-03-23T09:10:06;15.80;99.90
14182;DHT22;7171;50.936;6.764;2023-03-23T09:12:33;15.80;99.90
14182;DHT22;7171;50.936;6.764;2023-03-23T09:15:00;15.80;99.90
14182;DHT22;7171;50.936;6.764;2023-03-23T09:17:30;15.80;99.90
14182;DHT22;7171;50.936;6.764;2023-03-23T09:19:59;15.80;99.90
14182;DHT22;7171;50.936;6.764;2023-03-23T09:22:25;15.80;99.90
14182;DHT22;7171;50.936;6.764;2023-03-23T09:24:53;15.80;99.90
14182;DHT22;7171;50.936;6.764;2023-03-23T09:27:20;15.90;99.90
14182;DHT22;7171;50.936;6.764;2023-03-23T09:29:46;15.90;99.90
14182;DHT22;7171;50.936;6.764;2023-03-23T09:32:14;15.90;99.90
14182;DHT22;7171;50.936;6.764;2023-03-23T09:34:41;16.00;99.90
14182;DHT22;7171;50.936;6.764;2023-03-23T09:37:09;16.00;99.90
14182;DHT22;7171;50.936;6.764;2023-03-23T09:39:38;16.00;99.90
14182;DHT22;7171;50.936;6.764;2023-03-23T09:42:27;15.90;99.90
14182;DHT22;7171;50.936;6.764;2023-03-23T09:45:06;15.90;99.90
14182;DHT22;7171;50.936;6.764;2023-03-23T09:47:38;15.90;99.90
14182;DHT22;7171;50.936;6.764;2023-03-23T09:50:12;15.90;99.90
14182;DHT22;7171;50.936;6.764;2023-03-23T09:52:50;15.80;99.90
14182;DHT22;7171;50.936;6.764;2023-03-23T09:55:19;15.80;99.90
14182;DHT22;7171;50.936;6.764;2023-03-23T09:57:51;15.90;99.90
14182;DHT22;7171;50.936;6.764;2023-03-23T10:00:22;15.80;99.90
14182;DHT22;7171;50.936;6.764;2023-03-23T10:02:57;15.80;99.90
14182;DHT22;7171;50.936;6.764;2023-03-23T10:05:30;15.80;99.90
14182;DHT22;7171;50.936;6.764;2023-03-23T10:08:00;15.80;99.90
14182;DHT22;7171;50.936;6.764;2023-03-23T10:10:35;15.80;99.90
14182;DHT22;7171;50.936;6.764;2023-03-23T10:13:09;15.80;99.90
14182;DHT22;7171;50.936;6.764;2023-03-23T10:15:40;15.90;99.90
14182;DHT22;7171;50.936;6.764;2023-03-23T10:18:12;15.90;99.90
14182;DHT22;7171;50.936;6.764;2023-03-23T10:20:45;15.90;99.90
14182;DHT22;7171;50.936;6.764;2023-03-23T10:23:33;15.90;99.90
14182;DHT22;7171;50.936;6.764;2023-03-23T10:26:06;15.90;99.90
14182;DHT22;7171;50.936;6.764;2023-03-23T10:28:36;16.00;99.90
14182;DHT22;7171;50.936;6.764;2023-03-23T10:31:05;15.90;99.90
14182;DHT22;7171;50.936;6.764;2023-03-23T10:33:37;16.00;99.90
14182;DHT22;7171;50.936;6.764;2023-03-23T10:36:08;16.00;99.90
14182;DHT22;7171;50.936;6.764;2023-03-23T10:38:41;15.90;99.90
14182;DHT22;7171;50.936;6.764;2023-03-23T10:41:11;16.00;99.90
14182;DHT22;7171;50.936;6.764;2023-03-23T10:43:38;16.00;99.90
14182;DHT22;7171;50.936;6.764;2023-03-23T10:46:14;16.00;99.90
14182;DHT22;7171;50.936;6.764;2023-03-23T10:48:43;16.00;99.90
14182;DHT22;7171;50.936;6.764;2023-03-23T10:51:14;16.00;99.90
14182;DHT22;7171;50.936;6.764;2023-03-23T10:53:48;16.10;99.90
14182;DHT22;7171;50.936;6.764;2023-03-23T10:56:22;16.10;99.90
14182;DHT22;7171;50.936;6.764;2023-03-23T10:58:49;16.20;99.90
14182;DHT22;7171;50.936;6.764;2023-03-23T11:01:18;16.20;99.90
14182;DHT22;7171;50.936;6.764;2023-03-23T11:03:47;16.20;99.90
14182;DHT22;7171;50.936;6.764;2023-03-23T11:06:20;16.30;99.90
14182;DHT22;7171;50.936;6.764;2023-03-23T11:08:52;16.30;99.90
14182;DHT22;7171;50.936;6.764;2023-03-23T11:11:25;16.40;99.90
14182;DHT22;7171;50.936;6.764;2023-03-23T11:13:57;16.50;99.90
14182;DHT22;7171;50.936;6.764;2023-03-23T11:16:26;16.50;99.90
14182;DHT22;7171;50.936;6.764;2023-03-23T11:18:54;16.60;99.90
14182;DHT22;7171;50.936;6.764;2023-03-23T11:23:52;16.70;99.90
14182;DHT22;7171;50.936;6.764;2023-03-23T11:26:22;16.60;99.90
14182;DHT22;7171;50.936;6.764;2023-03-23T11:28:53;16.60;99.90
14182;DHT22;7171;50.936;6.764;2023-03-23T11:31:22;16.60;99.90
14182;DHT22;7171;50.936;6.764;2023-03-23T11:33:53;16.60;99.90
14182;DHT22;7171;50.936;6.764;2023-03-23T11:36:21;16.60;99.90
14182;DHT22;7171;50.936;6.764;2023-03-23T11:38:56;16.60;99.90
14182;DHT22;7171;50.936;6.764;2023-03-23T11:41:30;16.70;99.90
14182;DHT22;7171;50.936;6.764;2023-03-23T11:44:03;16.70;99.90
14182;DHT22;7171;50.936;6.764;2023-03-23T11:46:41;16.70;99.90
14182;DHT22;7171;50.936;6.764;2023-03-23T11:49:12;16.70;99.90
14182;DHT22;7171;50.936;6.764;2023-03-23T11:51:46;16.70;99.90
14182;DHT22;7171;50.936;6.764;2023-03-23T11:54:25;16.70;99.90
14182;DHT22;7171;50.936;6.764;2023-03-23T11:56:52;16.60;99.90
14182;DHT22;7171;50.936;6.764;2023-03-23T11:59:27;16.60;99.90
14182;DHT22;7171;50.936;6.764;2023-03-23T12:01:57;16.60;99.90
14182;DHT22;7171;50.936;6.764;2023-03-23T12:04:48;16.60;99.90
14182;DHT22;7171;50.936;6.764;2023-03-23T12:10:20;16.70;99.90
14182;DHT22;7171;50.936;6.764;2023-03-23T12:12:59;16.70;99.90
14182;DHT22;7171;50.936;6.764;2023-03-23T12:15:32;16.90;99.90
14182;DHT22;7171;50.936;6.764;2023-03-23T12:18:07;16.90;99.90
14182;DHT22;7171;50.936;6.764;2023-03-23T12:20:50;16.90;99.90
14182;DHT22;7171;50.936;6.764;2023-03-23T12:23:23;17.00;99.90
14182;DHT22;7171;50.936;6.764;2023-03-23T12:26:17;17.20;99.90
14182;DHT22;7171;50.936;6.764;2023-03-23T12:29:10;17.30;99.90
14182;DHT22;7171;50.936;6.764;2023-03-23T12:31:45;17.30;99.90
14182;DHT22;7171;50.936;6.764;2023-03-23T12:34:20;17.20;99.90
14182;DHT22;7171;50.936;6.764;2023-03-23T12:37:02;17.30;99.90
14182;DHT22;7171;50.936;6.764;2023-03-23T12:39:57;17.30;99.90
14182;DHT22;7171;50.936;6.764;2023-03-23T12:42:33;17.30;99.90
14182;DHT22;7171;50.936;6.764;2023-03-23T12:45:12;17.20;99.90
14182;DHT22;7171;50.936;6.764;2023-03-23T12:47:46;17.20;99.90
14182;DHT22;7171;50.936;6.764;2023-03-23T12:50:16;17.10;99.90
14182;DHT22;7171;50.936;6.764;2023-03-23T12:52:50;17.20;99.90
14182;DHT22;7171;50.936;6.764;2023-03-23T12:55:23;17.10;99.90
14182;DHT22;7171;50.936;6.764;2023-03-23T12:57:56;17.10;99.90
14182;DHT22;7171;50.936;6.764;2023-03-23T13:00:27;17.10;99.90
14182;DHT22;7171;50.936;6.764;2023-03-23T13:03:00;17.10;99.90
14182;DHT22;7171;50.936;6.764;2023-03-23T13:05:35;17.10;99.90
14182;DHT22;7171;50.936;6.764;2023-03-23T13:08:06;17.10;99.90
14182;DHT22;7171;50.936;6.764;2023-03-23T13:10:39;17.10;99.90
14182;DHT22;7171;50.936;6.764;2023-03-23T13:13:13;17.10;99.90
14182;DHT22;7171;50.936;6.764;2023-03-23T13:15:49;17.00;99.90
14182;DHT22;7171;50.936;6.764;2023-03-23T13:18:26;17.00;99.90
14182;DHT22;7171;50.936;6.764;2023-03-23T13:21:00;16.90;99.90
14182;DHT22;7171;50.936;6.764;2023-03-23T13:23:33;16.90;99.90
14182;DHT22;7171;50.936;6.764;2023-03-23T13:26:02;16.80;99.90
14182;DHT22;7171;50.936;6.764;2023-03-23T13:28:47;16.80;99.90
14182;DHT22;7171;50.936;6.764;2023-03-23T13:31:16;16.70;99.90
14182;DHT22;7171;50.936;6.764;2023-03-23T13:33:46;16.70;99.90
14182;DHT22;7171;50.936;6.764;2023-03-23T13:36:25;16.60;99.90
14182;DHT22;7171;50.936;6.764;2023-03-23T13:38:52;16.60;99.90
14182;DHT22;7171;50.936;6.764;2023-03-23T13:41:20;16.50;99.90
14182;DHT22;7171;50.936;6.764;2023-03-23T13:43:48;16.50;99.90
14182;DHT22;7171;50.936;6.764;2023-03-23T13:46:27;16.50;99.90
14182;DHT22;7171;50.936;6.764;2023-03-23T13:49:17;16.40;99.90
14182;DHT22;7171;50.936;6.764;2023-03-23T13:51:58;16.40;99.90
14182;DHT22;7171;50.936;6.764;2023-03-23T13:54:31;16.40;99.90
14182;DHT22;7171;50.936;6.764;2023-03-23T13:56:59;16.40;99.90
14182;DHT22;7171;50.936;6.764;2023-03-23T13:59:32;16.30;99.90
14182;DHT22;7171;50.936;6.764;2023-03-23T14:02:26;16.40;99.90
14182;DHT22;7171;50.936;6.764;2023-03-23T14:04:54;16.40;99.90
14182;DHT22;7171;50.936;6.764;2023-03-23T14:07:21;16.50;99.90
14182;DHT22;7171;50.936;6.764;2023-03-23T14:09:50;16.50;99.90
14182;DHT22;7171;50.936;6.764;2023-03-23T14:12:19;16.50;99.90
14182;DHT22;7171;50.936;6.764;2023-03-23T14:14:50;16.60;99.90
14182;DHT22;7171;50.936;6.764;2023-03-23T14:17:18;16.70;99.90
14182;DHT22;7171;50.936;6.764;2023-03-23T14:19:49;16.70;99.90
14182;DHT22;7171;50.936;6.764;2023-03-23T14:22:21;16.60;99.90
14182;DHT22;7171;50.936;6.764;2023-03-23T14:24:48;16.60;99.90
14182;DHT22;7171;50.936;6.764;2023-03-23T14:27:17;16.60;99.90
14182;DHT22;7171;50.936;6.764;2023-03-23T14:29:45;16.70;99.90
14182;DHT22;7171;50.936;6.764;2023-03-23T14:32:16;16.70;99.90
14182;DHT22;7171;50.936;6.764;2023-03-23T14:34:46;16.70;99.90
14182;DHT22;7171;50.936;6.764;2023-03-23T14:37:14;16.70;99.90
14182;DHT22;7171;50.936;6.764;2023-03-23T14:39:45;16.70;99.90
14182;DHT22;7171;50.936;6.764;2023-03-23T14:42:15;16.80;99.90
14182;DHT22;7171;50.936;6.764;2023-03-23T14:44:44;16.80;99.90
14182;DHT22;7171;50.936;6.764;2023-03-23T14:47:16;16.80;99.90
14182;DHT22;7171;50.936;6.764;2023-03-23T14:49:45;16.80;99.90
14182;DHT22;7171;50.936;6.764;2023-03-23T14:52:14;16.80;99.90
14182;DHT22;7171;50.936;6.764;2023-03-23T14:54:42;16.80;99.90
14182;DHT22;7171;50.936;6.764;2023-03-23T14:57:12;16.80;99.90
14182;DHT22;7171;50.936;6.764;2023-03-23T14:59:40;16.80;99.90
14182;DHT22;7171;50.936;6.764;2023-03-23T15:02:14;16.80;99.90
14182;DHT22;7171;50.936;6.764;2023-03-23T15:04:43;16.80;99.90
14182;DHT22;7171;50.936;6.764;2023-03-23T15:07:11;16.80;99.90
14182;DHT22;7171;50.936;6.764;2023-03-23T15:09:40;16.90;99.90
14182;DHT22;7171;50.936;6.764;2023-03-23T15:12:18;17.00;99.90
14182;DHT22;7171;50.936;6.764;2023-03-23T15:14:47;17.10;99.90
14182;DHT22;7171;50.936;6.764;2023-03-23T15:17:20;17.10;99.90
14182;DHT22;7171;50.936;6.764;2023-03-23T15:19:48;17.10;99.90
14182;DHT22;7171;50.936;6.764;2023-03-23T15:22:20;17.20;99.90
14182;DHT22;7171;50.936;6.764;2023-03-23T15:24:47;17.30;99.90
14182;DHT22;7171;50.936;6.764;2023-03-23T15:27:26;17.40;99.90
14182;DHT22;7171;50.936;6.764;2023-03-23T15:29:54;17.60;99.90
14182;DHT22;7171;50.936;6.764;2023-03-23T15:32:27;17.70;99.90
14182;DHT22;7171;50.936;6.764;2023-03-23T15:34:55;17.80;99.90
14182;DHT22;7171;50.936;6.764;2023-03-23T15:37:26;17.90;99.90
14182;DHT22;7171;50.936;6.764;2023-03-23T15:39:53;17.90;99.90
14182;DHT22;7171;50.936;6.764;2023-03-23T15:42:24;17.90;99.90
14182;DHT22;7171;50.936;6.764;2023-03-23T15:44:56;17.90;99.90
14182;DHT22;7171;50.936;6.764;2023-03-23T15:47:34;17.80;99.90
14182;DHT22;7171;50.936;6.764;2023-03-23T15:50:07;17.80;99.90
14182;DHT22;7171;50.936;6.764;2023-03-23T15:52:34;17.70;99.90
14182;DHT22;7171;50.936;6.764;2023-03-23T15:55:01;17.60;99.90
14182;DHT22;7171;50.936;6.764;2023-03-23T15:57:28;17.60;99.90
14182;DHT22;7171;50.936;6.764;2023-03-23T15:59:54;17.60;99.90
14182;DHT22;7171;50.936;6.764;2023-03-23T16:02:23;17.70;99.90
14182;DHT22;7171;50.936;6.764;2023-03-23T16:04:52;17.70;99.90
14182;DHT22;7171;50.936;6.764;2023-03-23T16:07:21;17.70;99.90
14182;DHT22;7171;50.936;6.764;2023-03-23T16:09:48;17.60;99.90
14182;DHT22;7171;50.936;6.764;2023-03-23T16:12:15;17.60;99.90
14182;DHT22;7171;50.936;6.764;2023-03-23T16:14:42;17.50;99.90
14182;DHT22;7171;50.936;6.764;2023-03-23T16:17:11;17.50;99.90